Seattle, WA

3:46 AM PST en Febrero 19, 2017 (GMT -0800)
Seattle-Tacoma International | | Change Station
Aviso en curso: Small Craft Advisory

Alt 427 ft 47.45 °N, 122.31 °W | Updated 53 minutes ago

Muy nublado
Muy nublado
44 ° F
Sensación térmica 44 ° F
N
0
Viento Variable Viento desde Norte

Hoy
Alta -- | Baja -- ° F
--% Posibilidad de precipitaciones
Ayer
Alta -- | Baja -- ° F
Precip. -- pul
Presión 29.43 pul
Visibilidad 10.0 Millas
Nubes Baja 1500 ft
Muy nublado 5000 ft
Nublado 7000 ft
Punto de rocío 42 ° F
Humedad 93%
Precipitaciones 0.00 pul
Espesor de la nieve No disponible.
7:07 AM 5:39 PM
Cuarto menguante, 44% visible
METAR KSEA 191053Z 00000KT 10SM FEW015 BKN050 OVC070 06/05 A2943 RMK AO2 SLPNO T00640053
Presión 29.43 pul
Visibilidad 10.0 Millas
Nubes Baja 1500 ft
Muy nublado 5000 ft
Nublado 7000 ft
Punto de rocío 42 ° F
Humedad 93%
Precipitaciones 0.00 pul
Espesor de la nieve No disponible.
7:07 AM 5:39 PM
Cuarto menguante, 44% visible
METAR KSEA 191053Z 00000KT 10SM FEW015 BKN050 OVC070 06/05 A2943 RMK AO2 SLPNO T00640053

Get Your Daily Forecast Email!

Thanks for signing up!

Be on the lookout for a verification email in your inbox.

You'll start receiving the daily forecast at 8 AM.

×

10-Day Weather Forecast

Almanac

Astronomía

Feb. 19, 2017 Salida Puesta
Hora real
Crepúsculo civil
Crepúsculo náutico
Crepúsculo astronómico
Luna
Horas de luz
Horas de luz
Tomorrow will be .
, % of the Moon is Illuminated

Extremos de hoy

Máximos del estado Bajos del estado

Community

WunderPhotos

Upload Photos

1,962,540 ¡fotos cargadas!

WunderBlog® & News

Nearby

Calidad del aire

  Calidad del aire Índice AQ Contaminante
Not available.

Grosos de nieve

Estación Profundido Altura

Actividad de terremotos

Ciudad Distance Mag. Tiempo y dato
Magnitud mínima muestra es 2,5.

Temperaturas de aguas costeras

Lugar Temperatura

Stations

Estaciones meteorológicas cercanas

Ubicación de la estación Temp. Vientos helados Punto de rocío Humedad Viento Precip. Alt Actualizado Tipo
                   

Watches & Warnings

Small Craft Advisory
Issued: 2:37 AM PST Feb. 19, 2017 – National Weather Service

... Small Craft Advisory in effect from 10 am this morning to
midnight PST tonight...

The National Weather Service in Seattle has issued a Small Craft
Advisory... which is in effect from 10 am this morning to midnight
PST tonight.

* Winds... south 15 to 25 knots.

* Waves/seas... wind waves 2 to 4 feet.

Precautionary/preparedness actions...

A Small Craft Advisory means that wind speeds of 21 to 33 knots are
expected to produce hazardous wave conditions to small craft.
Inexperienced mariners... especially those operating smaller vessels
should avoid navigating in these conditions.